sensor_id;sensor_type;location;lat;lon;timestamp;P1;durP1;ratioP1;P2;durP2;ratioP2
71973;SDS011;59840;52.122;5.404;2023-06-22T00:02:26;2.37;;;2.17;;
71973;SDS011;59840;52.122;5.404;2023-06-22T00:04:53;2.97;;;2.08;;
71973;SDS011;59840;52.122;5.404;2023-06-22T00:07:19;2.55;;;2.15;;
71973;SDS011;59840;52.122;5.404;2023-06-22T00:09:46;2.72;;;2.05;;
71973;SDS011;59840;52.122;5.404;2023-06-22T00:12:13;3.20;;;2.40;;
71973;SDS011;59840;52.122;5.404;2023-06-22T00:14:39;2.23;;;2.03;;
71973;SDS011;59840;52.122;5.404;2023-06-22T00:17:06;3.20;;;2.20;;
71973;SDS011;59840;52.122;5.404;2023-06-22T00:19:32;3.38;;;2.33;;
71973;SDS011;59840;52.122;5.404;2023-06-22T00:22:02;6.65;;;3.03;;
71973;SDS011;59840;52.122;5.404;2023-06-22T00:24:30;3.70;;;2.65;;
71973;SDS011;59840;52.122;5.404;2023-06-22T00:26:56;4.27;;;2.83;;
71973;SDS011;59840;52.122;5.404;2023-06-22T00:29:23;3.30;;;2.50;;
71973;SDS011;59840;52.122;5.404;2023-06-22T00:31:51;3.05;;;2.63;;
71973;SDS011;59840;52.122;5.404;2023-06-22T00:34:18;3.20;;;2.42;;
71973;SDS011;59840;52.122;5.404;2023-06-22T00:36:44;2.63;;;2.33;;
71973;SDS011;59840;52.122;5.404;2023-06-22T00:39:11;4.93;;;2.70;;
71973;SDS011;59840;52.122;5.404;2023-06-22T00:41:38;3.47;;;2.17;;
71973;SDS011;59840;52.122;5.404;2023-06-22T00:44:05;3.47;;;2.60;;
71973;SDS011;59840;52.122;5.404;2023-06-22T00:46:33;3.20;;;2.90;;
71973;SDS011;59840;52.122;5.404;2023-06-22T00:49:00;3.25;;;2.92;;
71973;SDS011;59840;52.122;5.404;2023-06-22T00:51:26;2.50;;;2.30;;
71973;SDS011;59840;52.122;5.404;2023-06-22T00:53:53;3.03;;;2.40;;
71973;SDS011;59840;52.122;5.404;2023-06-22T00:56:23;2.53;;;2.33;;
71973;SDS011;59840;52.122;5.404;2023-06-22T00:58:51;2.60;;;2.38;;
71973;SDS011;59840;52.122;5.404;2023-06-22T01:01:19;4.35;;;2.50;;
71973;SDS011;59840;52.122;5.404;2023-06-22T01:03:50;3.03;;;2.40;;
71973;SDS011;59840;52.122;5.404;2023-06-22T01:06:20;2.65;;;2.00;;
71973;SDS011;59840;52.122;5.404;2023-06-22T01:08:57;4.22;;;2.35;;
71973;SDS011;59840;52.122;5.404;2023-06-22T01:11:36;3.15;;;2.50;;
71973;SDS011;59840;52.122;5.404;2023-06-22T01:16:51;2.90;;;2.33;;
71973;SDS011;59840;52.122;5.404;2023-06-22T01:19:41;3.92;;;2.38;;
71973;SDS011;59840;52.122;5.404;2023-06-22T01:22:14;2.80;;;2.50;;
71973;SDS011;59840;52.122;5.404;2023-06-22T01:30:16;3.30;;;2.50;;
71973;SDS011;59840;52.122;5.404;2023-06-22T01:32:45;2.70;;;2.33;;
71973;SDS011;59840;52.122;5.404;2023-06-22T01:35:13;2.88;;;2.65;;
71973;SDS011;59840;52.122;5.404;2023-06-22T01:37:42;3.35;;;2.83;;
71973;SDS011;59840;52.122;5.404;2023-06-22T01:40:09;5.70;;;3.50;;
71973;SDS011;59840;52.122;5.404;2023-06-22T01:42:37;3.30;;;3.00;;
71973;SDS011;59840;52.122;5.404;2023-06-22T01:45:05;3.42;;;2.47;;
71973;SDS011;59840;52.122;5.404;2023-06-22T01:47:33;2.08;;;1.90;;
71973;SDS011;59840;52.122;5.404;2023-06-22T01:50:00;4.22;;;2.90;;
71973;SDS011;59840;52.122;5.404;2023-06-22T01:52:27;2.92;;;2.22;;
71973;SDS011;59840;52.122;5.404;2023-06-22T01:54:54;4.20;;;2.60;;
71973;SDS011;59840;52.122;5.404;2023-06-22T01:57:20;3.30;;;2.63;;
71973;SDS011;59840;52.122;5.404;2023-06-22T02:00:03;2.72;;;2.20;;
71973;SDS011;59840;52.122;5.404;2023-06-22T02:02:36;3.20;;;2.35;;
71973;SDS011;59840;52.122;5.404;2023-06-22T02:05:08;2.80;;;2.40;;
71973;SDS011;59840;52.122;5.404;2023-06-22T02:07:44;4.87;;;2.60;;
71973;SDS011;59840;52.122;5.404;2023-06-22T02:10:15;3.65;;;2.58;;
71973;SDS011;59840;52.122;5.404;2023-06-22T02:12:46;3.88;;;2.60;;
71973;SDS011;59840;52.122;5.404;2023-06-22T02:15:14;4.95;;;2.90;;
71973;SDS011;59840;52.122;5.404;2023-06-22T02:17:42;3.20;;;2.78;;
71973;SDS011;59840;52.122;5.404;2023-06-22T02:20:12;3.40;;;3.10;;
71973;SDS011;59840;52.122;5.404;2023-06-22T02:22:39;3.47;;;3.00;;
71973;SDS011;59840;52.122;5.404;2023-06-22T02:25:06;4.63;;;2.55;;
71973;SDS011;59840;52.122;5.404;2023-06-22T02:27:34;2.95;;;2.20;;
71973;SDS011;59840;52.122;5.404;2023-06-22T02:30:00;3.50;;;2.33;;
71973;SDS011;59840;52.122;5.404;2023-06-22T02:32:27;4.03;;;2.90;;
71973;SDS011;59840;52.122;5.404;2023-06-22T02:34:54;3.22;;;2.88;;
71973;SDS011;59840;52.122;5.404;2023-06-22T02:37:20;3.20;;;2.90;;
71973;SDS011;59840;52.122;5.404;2023-06-22T02:39:51;3.50;;;2.58;;
71973;SDS011;59840;52.122;5.404;2023-06-22T02:42:18;5.38;;;2.80;;
71973;SDS011;59840;52.122;5.404;2023-06-22T02:44:47;3.27;;;2.63;;
71973;SDS011;59840;52.122;5.404;2023-06-22T02:47:15;3.88;;;2.05;;
71973;SDS011;59840;52.122;5.404;2023-06-22T02:49:42;2.30;;;2.10;;
71973;SDS011;59840;52.122;5.404;2023-06-22T02:52:11;4.10;;;2.22;;
71973;SDS011;59840;52.122;5.404;2023-06-22T02:54:37;4.50;;;2.95;;
71973;SDS011;59840;52.122;5.404;2023-06-22T02:57:04;3.17;;;2.87;;
71973;SDS011;59840;52.122;5.404;2023-06-22T02:59:31;3.58;;;2.83;;
71973;SDS011;59840;52.122;5.404;2023-06-22T03:01:59;3.42;;;2.60;;
71973;SDS011;59840;52.122;5.404;2023-06-22T03:04:27;2.90;;;2.60;;
71973;SDS011;59840;52.122;5.404;2023-06-22T03:06:53;4.25;;;2.90;;
71973;SDS011;59840;52.122;5.404;2023-06-22T03:09:20;3.00;;;2.70;;
71973;SDS011;59840;52.122;5.404;2023-06-22T03:11:47;3.83;;;2.90;;
71973;SDS011;59840;52.122;5.404;2023-06-22T03:14:13;5.38;;;2.88;;
71973;SDS011;59840;52.122;5.404;2023-06-22T03:16:40;3.10;;;2.70;;
71973;SDS011;59840;52.122;5.404;2023-06-22T03:19:07;3.38;;;3.08;;
71973;SDS011;59840;52.122;5.404;2023-06-22T03:21:34;3.57;;;2.83;;
71973;SDS011;59840;52.122;5.404;2023-06-22T03:24:00;4.30;;;3.55;;
71973;SDS011;59840;52.122;5.404;2023-06-22T03:26:27;3.13;;;2.80;;
71973;SDS011;59840;52.122;5.404;2023-06-22T03:28:54;4.00;;;2.63;;
71973;SDS011;59840;52.122;5.404;2023-06-22T03:31:21;3.50;;;2.92;;
71973;SDS011;59840;52.122;5.404;2023-06-22T03:33:49;4.00;;;2.80;;
71973;SDS011;59840;52.122;5.404;2023-06-22T03:36:19;4.28;;;2.95;;
71973;SDS011;59840;52.122;5.404;2023-06-22T03:38:46;3.90;;;3.03;;
71973;SDS011;59840;52.122;5.404;2023-06-22T03:41:14;4.03;;;2.75;;
71973;SDS011;59840;52.122;5.404;2023-06-22T03:43:41;3.97;;;2.97;;
71973;SDS011;59840;52.122;5.404;2023-06-22T03:46:08;4.40;;;2.77;;
71973;SDS011;59840;52.122;5.404;2023-06-22T03:48:35;5.25;;;3.38;;
71973;SDS011;59840;52.122;5.404;2023-06-22T03:51:02;3.88;;;3.35;;
71973;SDS011;59840;52.122;5.404;2023-06-22T03:53:32;3.72;;;2.70;;
71973;SDS011;59840;52.122;5.404;2023-06-22T03:55:58;2.67;;;2.38;;
71973;SDS011;59840;52.122;5.404;2023-06-22T03:58:25;5.70;;;2.67;;
71973;SDS011;59840;52.122;5.404;2023-06-22T04:00:52;3.28;;;2.40;;
71973;SDS011;59840;52.122;5.404;2023-06-22T04:03:19;3.33;;;2.80;;
71973;SDS011;59840;52.122;5.404;2023-06-22T04:05:46;3.80;;;2.65;;
71973;SDS011;59840;52.122;5.404;2023-06-22T04:08:14;3.65;;;2.78;;
71973;SDS011;59840;52.122;5.404;2023-06-22T04:10:41;4.80;;;2.87;;
71973;SDS011;59840;52.122;5.404;2023-06-22T04:13:07;5.65;;;3.00;;
71973;SDS011;59840;52.122;5.404;2023-06-22T04:15:34;4.00;;;3.20;;
71973;SDS011;59840;52.122;5.404;2023-06-22T04:18:01;3.80;;;2.83;;
71973;SDS011;59840;52.122;5.404;2023-06-22T04:20:28;6.38;;;3.22;;
71973;SDS011;59840;52.122;5.404;2023-06-22T04:22:55;4.03;;;3.50;;
71973;SDS011;59840;52.122;5.404;2023-06-22T04:25:22;7.32;;;4.53;;
71973;SDS011;59840;52.122;5.404;2023-06-22T04:27:49;5.78;;;4.60;;
71973;SDS011;59840;52.122;5.404;2023-06-22T04:30:16;5.90;;;4.18;;
71973;SDS011;59840;52.122;5.404;2023-06-22T04:32:43;6.45;;;5.53;;
71973;SDS011;59840;52.122;5.404;2023-06-22T04:35:11;8.00;;;5.47;;
71973;SDS011;59840;52.122;5.404;2023-06-22T04:37:38;6.82;;;5.00;;
71973;SDS011;59840;52.122;5.404;2023-06-22T04:40:05;6.30;;;4.30;;
71973;SDS011;59840;52.122;5.404;2023-06-22T04:42:34;7.40;;;5.80;;
71973;SDS011;59840;52.122;5.404;2023-06-22T04:45:02;10.15;;;7.32;;
71973;SDS011;59840;52.122;5.404;2023-06-22T04:47:30;8.80;;;7.27;;
71973;SDS011;59840;52.122;5.404;2023-06-22T04:49:57;10.55;;;8.07;;
71973;SDS011;59840;52.122;5.404;2023-06-22T04:52:23;12.80;;;8.77;;
71973;SDS011;59840;52.122;5.404;2023-06-22T04:54:51;12.18;;;8.63;;
71973;SDS011;59840;52.122;5.404;2023-06-22T04:57:22;15.38;;;9.18;;
71973;SDS011;59840;52.122;5.404;2023-06-22T04:59:59;13.73;;;9.67;;
71973;SDS011;59840;52.122;5.404;2023-06-22T05:02:39;14.25;;;9.50;;
71973;SDS011;59840;52.122;5.404;2023-06-22T05:05:06;13.40;;;9.93;;
71973;SDS011;59840;52.122;5.404;2023-06-22T05:07:34;14.80;;;10.15;;
71973;SDS011;59840;52.122;5.404;2023-06-22T05:10:01;16.60;;;11.32;;
71973;SDS011;59840;52.122;5.404;2023-06-22T05:12:29;18.80;;;11.50;;
71973;SDS011;59840;52.122;5.404;2023-06-22T05:14:56;16.90;;;12.43;;
71973;SDS011;59840;52.122;5.404;2023-06-22T05:17:24;14.55;;;11.13;;
71973;SDS011;59840;52.122;5.404;2023-06-22T05:19:51;14.38;;;11.45;;
71973;SDS011;59840;52.122;5.404;2023-06-22T05:22:18;18.60;;;12.45;;
71973;SDS011;59840;52.122;5.404;2023-06-22T05:24:45;17.30;;;13.63;;
71973;SDS011;59840;52.122;5.404;2023-06-22T05:27:13;19.58;;;14.48;;
71973;SDS011;59840;52.122;5.404;2023-06-22T05:29:40;20.45;;;13.75;;
71973;SDS011;59840;52.122;5.404;2023-06-22T05:32:09;21.27;;;13.70;;
71973;SDS011;59840;52.122;5.404;2023-06-22T05:34:36;19.85;;;13.60;;
71973;SDS011;59840;52.122;5.404;2023-06-22T05:37:03;21.70;;;13.97;;
71973;SDS011;59840;52.122;5.404;2023-06-22T05:39:29;21.77;;;14.73;;
71973;SDS011;59840;52.122;5.404;2023-06-22T05:41:56;20.30;;;13.82;;
71973;SDS011;59840;52.122;5.404;2023-06-22T05:44:23;21.02;;;13.93;;
71973;SDS011;59840;52.122;5.404;2023-06-22T05:46:49;21.15;;;14.10;;
71973;SDS011;59840;52.122;5.404;2023-06-22T05:49:16;20.23;;;14.17;;
71973;SDS011;59840;52.122;5.404;2023-06-22T05:51:43;22.10;;;15.38;;
71973;SDS011;59840;52.122;5.404;2023-06-22T05:54:10;26.30;;;16.15;;
71973;SDS011;59840;52.122;5.404;2023-06-22T05:56:36;23.00;;;16.08;;
71973;SDS011;59840;52.122;5.404;2023-06-22T05:59:03;24.27;;;17.08;;
71973;SDS011;59840;52.122;5.404;2023-06-22T06:01:31;25.83;;;16.47;;
71973;SDS011;59840;52.122;5.404;2023-06-22T06:04:02;24.27;;;16.00;;
71973;SDS011;59840;52.122;5.404;2023-06-22T06:06:30;25.13;;;16.75;;
71973;SDS011;59840;52.122;5.404;2023-06-22T06:08:57;23.75;;;15.95;;
71973;SDS011;59840;52.122;5.404;2023-06-22T06:11:25;23.17;;;16.27;;
71973;SDS011;59840;52.122;5.404;2023-06-22T06:13:52;23.50;;;17.17;;
71973;SDS011;59840;52.122;5.404;2023-06-22T06:16:18;21.55;;;15.55;;
71973;SDS011;59840;52.122;5.404;2023-06-22T06:18:45;22.80;;;16.15;;
71973;SDS011;59840;52.122;5.404;2023-06-22T06:21:11;22.75;;;16.17;;
71973;SDS011;59840;52.122;5.404;2023-06-22T06:23:38;20.92;;;15.20;;
71973;SDS011;59840;52.122;5.404;2023-06-22T06:26:04;21.40;;;15.07;;
71973;SDS011;59840;52.122;5.404;2023-06-22T06:28:33;19.85;;;15.70;;
71973;SDS011;59840;52.122;5.404;2023-06-22T06:31:00;20.25;;;15.68;;
71973;SDS011;59840;52.122;5.404;2023-06-22T06:33:27;20.77;;;15.57;;
71973;SDS011;59840;52.122;5.404;2023-06-22T06:35:53;22.20;;;16.08;;
71973;SDS011;59840;52.122;5.404;2023-06-22T06:38:22;19.40;;;15.07;;
71973;SDS011;59840;52.122;5.404;2023-06-22T06:40:48;21.75;;;14.60;;
71973;SDS011;59840;52.122;5.404;2023-06-22T06:43:15;19.60;;;14.68;;
71973;SDS011;59840;52.122;5.404;2023-06-22T06:45:41;21.42;;;15.65;;
71973;SDS011;59840;52.122;5.404;2023-06-22T06:48:08;23.42;;;16.08;;
71973;SDS011;59840;52.122;5.404;2023-06-22T06:50:35;21.03;;;15.03;;
71973;SDS011;59840;52.122;5.404;2023-06-22T06:53:02;20.33;;;14.90;;
71973;SDS011;59840;52.122;5.404;2023-06-22T06:55:29;21.83;;;15.77;;
71973;SDS011;59840;52.122;5.404;2023-06-22T06:57:59;18.50;;;14.68;;
71973;SDS011;59840;52.122;5.404;2023-06-22T07:00:26;19.27;;;15.40;;
71973;SDS011;59840;52.122;5.404;2023-06-22T07:02:53;20.53;;;15.70;;
71973;SDS011;59840;52.122;5.404;2023-06-22T07:05:20;21.20;;;15.60;;
71973;SDS011;59840;52.122;5.404;2023-06-22T07:07:46;22.23;;;15.43;;
71973;SDS011;59840;52.122;5.404;2023-06-22T07:10:13;19.85;;;14.57;;
71973;SDS011;59840;52.122;5.404;2023-06-22T07:12:41;18.80;;;13.80;;
71973;SDS011;59840;52.122;5.404;2023-06-22T07:15:08;18.97;;;14.13;;
71973;SDS011;59840;52.122;5.404;2023-06-22T07:17:36;17.02;;;14.05;;
71973;SDS011;59840;52.122;5.404;2023-06-22T07:20:03;18.95;;;13.75;;
71973;SDS011;59840;52.122;5.404;2023-06-22T07:22:34;18.98;;;14.00;;
71973;SDS011;59840;52.122;5.404;2023-06-22T07:25:01;19.48;;;13.50;;
71973;SDS011;59840;52.122;5.404;2023-06-22T07:27:31;18.33;;;13.67;;
71973;SDS011;59840;52.122;5.404;2023-06-22T07:30:02;17.98;;;13.45;;
71973;SDS011;59840;52.122;5.404;2023-06-22T07:32:29;15.50;;;13.05;;
71973;SDS011;59840;52.122;5.404;2023-06-22T07:34:55;16.27;;;12.75;;
71973;SDS011;59840;52.122;5.404;2023-06-22T07:37:22;13.95;;;12.10;;
71973;SDS011;59840;52.122;5.404;2023-06-22T07:39:48;15.30;;;11.67;;
71973;SDS011;59840;52.122;5.404;2023-06-22T07:42:16;13.15;;;11.75;;
71973;SDS011;59840;52.122;5.404;2023-06-22T07:44:45;13.93;;;11.52;;
71973;SDS011;59840;52.122;5.404;2023-06-22T07:47:11;13.93;;;11.50;;
71973;SDS011;59840;52.122;5.404;2023-06-22T07:49:38;14.98;;;12.02;;
71973;SDS011;59840;52.122;5.404;2023-06-22T07:52:05;12.33;;;10.87;;
71973;SDS011;59840;52.122;5.404;2023-06-22T07:54:32;14.38;;;12.15;;
71973;SDS011;59840;52.122;5.404;2023-06-22T07:56:59;14.15;;;11.43;;
71973;SDS011;59840;52.122;5.404;2023-06-22T07:59:26;15.65;;;11.82;;
71973;SDS011;59840;52.122;5.404;2023-06-22T08:01:52;15.88;;;11.68;;
71973;SDS011;59840;52.122;5.404;2023-06-22T08:04:20;15.37;;;11.97;;
71973;SDS011;59840;52.122;5.404;2023-06-22T08:06:46;13.25;;;11.82;;
71973;SDS011;59840;52.122;5.404;2023-06-22T08:09:13;14.52;;;11.40;;
71973;SDS011;59840;52.122;5.404;2023-06-22T08:11:40;16.90;;;11.82;;
71973;SDS011;59840;52.122;5.404;2023-06-22T08:14:06;15.77;;;11.10;;
71973;SDS011;59840;52.122;5.404;2023-06-22T08:16:33;13.40;;;10.13;;
71973;SDS011;59840;52.122;5.404;2023-06-22T08:18:59;12.82;;;10.85;;
71973;SDS011;59840;52.122;5.404;2023-06-22T08:21:26;12.27;;;10.52;;
71973;SDS011;59840;52.122;5.404;2023-06-22T08:23:53;11.68;;;10.32;;
71973;SDS011;59840;52.122;5.404;2023-06-22T08:26:19;13.57;;;10.65;;
71973;SDS011;59840;52.122;5.404;2023-06-22T08:28:47;16.90;;;10.73;;
71973;SDS011;59840;52.122;5.404;2023-06-22T08:31:16;13.18;;;10.38;;
71973;SDS011;59840;52.122;5.404;2023-06-22T08:33:42;12.60;;;10.10;;
71973;SDS011;59840;52.122;5.404;2023-06-22T08:36:15;10.65;;;9.55;;
71973;SDS011;59840;52.122;5.404;2023-06-22T08:38:42;11.63;;;9.13;;
71973;SDS011;59840;52.122;5.404;2023-06-22T08:41:09;10.13;;;8.87;;
71973;SDS011;59840;52.122;5.404;2023-06-22T08:43:35;10.07;;;8.13;;
71973;SDS011;59840;52.122;5.404;2023-06-22T08:46:02;9.23;;;8.18;;
71973;SDS011;59840;52.122;5.404;2023-06-22T08:48:29;8.55;;;7.53;;
71973;SDS011;59840;52.122;5.404;2023-06-22T08:50:55;10.82;;;7.32;;
71973;SDS011;59840;52.122;5.404;2023-06-22T08:53:22;7.97;;;7.17;;
71973;SDS011;59840;52.122;5.404;2023-06-22T08:55:48;9.85;;;7.57;;
71973;SDS011;59840;52.122;5.404;2023-06-22T08:58:17;7.85;;;7.05;;
71973;SDS011;59840;52.122;5.404;2023-06-22T09:00:44;9.18;;;7.40;;
71973;SDS011;59840;52.122;5.404;2023-06-22T09:03:11;7.18;;;6.47;;
71973;SDS011;59840;52.122;5.404;2023-06-22T09:05:37;7.60;;;6.90;;
71973;SDS011;59840;52.122;5.404;2023-06-22T09:08:04;8.90;;;6.30;;
71973;SDS011;59840;52.122;5.404;2023-06-22T09:10:31;6.28;;;5.68;;
71973;SDS011;59840;52.122;5.404;2023-06-22T09:12:58;6.70;;;5.90;;
71973;SDS011;59840;52.122;5.404;2023-06-22T09:15:25;5.90;;;5.40;;
71973;SDS011;59840;52.122;5.404;2023-06-22T09:17:51;5.67;;;5.17;;
71973;SDS011;59840;52.122;5.404;2023-06-22T09:20:20;4.43;;;4.03;;
71973;SDS011;59840;52.122;5.404;2023-06-22T09:22:47;5.43;;;4.93;;
71973;SDS011;59840;52.122;5.404;2023-06-22T09:25:14;5.18;;;4.78;;
71973;SDS011;59840;52.122;5.404;2023-06-22T09:27:40;5.75;;;4.65;;
71973;SDS011;59840;52.122;5.404;2023-06-22T09:30:07;6.23;;;5.63;;
71973;SDS011;59840;52.122;5.404;2023-06-22T09:32:34;6.07;;;5.50;;
71973;SDS011;59840;52.122;5.404;2023-06-22T09:35:03;6.97;;;5.65;;
71973;SDS011;59840;52.122;5.404;2023-06-22T09:37:35;6.00;;;5.47;;
71973;SDS011;59840;52.122;5.404;2023-06-22T09:40:02;5.93;;;5.20;;
71973;SDS011;59840;52.122;5.404;2023-06-22T09:42:34;6.83;;;5.30;;
71973;SDS011;59840;52.122;5.404;2023-06-22T09:45:01;5.68;;;4.10;;
71973;SDS011;59840;52.122;5.404;2023-06-22T09:47:28;5.63;;;4.15;;
71973;SDS011;59840;52.122;5.404;2023-06-22T09:49:55;5.20;;;4.70;;
71973;SDS011;59840;52.122;5.404;2023-06-22T09:52:22;4.72;;;4.30;;
71973;SDS011;59840;52.122;5.404;2023-06-22T09:54:56;4.80;;;4.40;;
71973;SDS011;59840;52.122;5.404;2023-06-22T09:57:22;5.22;;;4.72;;
71973;SDS011;59840;52.122;5.404;2023-06-22T09:59:49;5.20;;;4.70;;
71973;SDS011;59840;52.122;5.404;2023-06-22T10:02:16;5.88;;;5.30;;
71973;SDS011;59840;52.122;5.404;2023-06-22T10:04:43;5.78;;;5.28;;
71973;SDS011;59840;52.122;5.404;2023-06-22T10:07:10;8.20;;;5.63;;
71973;SDS011;59840;52.122;5.404;2023-06-22T10:09:37;5.78;;;5.18;;
71973;SDS011;59840;52.122;5.404;2023-06-22T10:12:03;5.60;;;5.10;;
71973;SDS011;59840;52.122;5.404;2023-06-22T10:14:30;5.40;;;4.90;;
71973;SDS011;59840;52.122;5.404;2023-06-22T10:16:57;6.15;;;5.10;;
71973;SDS011;59840;52.122;5.404;2023-06-22T10:19:25;4.40;;;4.00;;
71973;SDS011;59840;52.122;5.404;2023-06-22T10:21:52;4.13;;;3.80;;
71973;SDS011;59840;52.122;5.404;2023-06-22T10:24:18;3.80;;;3.42;;
71973;SDS011;59840;52.122;5.404;2023-06-22T10:26:45;3.60;;;3.30;;
71973;SDS011;59840;52.122;5.404;2023-06-22T10:29:11;4.28;;;3.15;;
71973;SDS011;59840;52.122;5.404;2023-06-22T10:31:42;3.83;;;3.53;;
71973;SDS011;59840;52.122;5.404;2023-06-22T10:34:09;4.32;;;3.85;;
71973;SDS011;59840;52.122;5.404;2023-06-22T10:36:35;5.05;;;3.55;;
71973;SDS011;59840;52.122;5.404;2023-06-22T10:39:02;4.10;;;3.70;;
71973;SDS011;59840;52.122;5.404;2023-06-22T10:41:29;4.20;;;3.90;;
71973;SDS011;59840;52.122;5.404;2023-06-22T10:43:57;20.30;;;4.57;;
71973;SDS011;59840;52.122;5.404;2023-06-22T10:46:24;4.60;;;4.20;;
71973;SDS011;59840;52.122;5.404;2023-06-22T10:48:52;5.43;;;4.13;;
71973;SDS011;59840;52.122;5.404;2023-06-22T10:51:21;4.75;;;4.35;;
71973;SDS011;59840;52.122;5.404;2023-06-22T10:53:48;4.85;;;4.30;;
71973;SDS011;59840;52.122;5.404;2023-06-22T10:56:14;4.93;;;4.10;;
71973;SDS011;59840;52.122;5.404;2023-06-22T10:58:41;4.70;;;4.25;;
71973;SDS011;59840;52.122;5.404;2023-06-22T11:01:07;5.47;;;4.68;;
71973;SDS011;59840;52.122;5.404;2023-06-22T11:03:45;5.35;;;4.32;;
71973;SDS011;59840;52.122;5.404;2023-06-22T11:06:12;4.97;;;4.35;;
71973;SDS011;59840;52.122;5.404;2023-06-22T11:08:38;5.87;;;3.97;;
71973;SDS011;59840;52.122;5.404;2023-06-22T11:11:14;5.07;;;4.10;;
71973;SDS011;59840;52.122;5.404;2023-06-22T11:13:43;6.00;;;4.88;;
71973;SDS011;59840;52.122;5.404;2023-06-22T11:16:10;5.57;;;4.80;;
71973;SDS011;59840;52.122;5.404;2023-06-22T11:18:37;5.53;;;5.03;;
71973;SDS011;59840;52.122;5.404;2023-06-22T11:21:04;6.37;;;4.73;;
71973;SDS011;59840;52.122;5.404;2023-06-22T11:23:30;9.10;;;4.78;;
71973;SDS011;59840;52.122;5.404;2023-06-22T11:25:57;6.57;;;5.90;;
71973;SDS011;59840;52.122;5.404;2023-06-22T11:28:24;4.80;;;4.30;;
71973;SDS011;59840;52.122;5.404;2023-06-22T11:30:51;6.53;;;5.93;;
71973;SDS011;59840;52.122;5.404;2023-06-22T11:33:17;8.97;;;6.10;;
71973;SDS011;59840;52.122;5.404;2023-06-22T11:35:44;6.50;;;5.78;;
71973;SDS011;59840;52.122;5.404;2023-06-22T11:38:11;8.38;;;6.50;;
71973;SDS011;59840;52.122;5.404;2023-06-22T11:40:37;8.85;;;6.60;;
71973;SDS011;59840;52.122;5.404;2023-06-22T11:43:04;8.15;;;7.03;;
71973;SDS011;59840;52.122;5.404;2023-06-22T11:45:31;7.27;;;6.57;;
71973;SDS011;59840;52.122;5.404;2023-06-22T11:47:57;9.10;;;6.68;;
71973;SDS011;59840;52.122;5.404;2023-06-22T11:50:24;7.57;;;6.75;;
71973;SDS011;59840;52.122;5.404;2023-06-22T11:52:50;7.65;;;6.95;;
71973;SDS011;59840;52.122;5.404;2023-06-22T11:55:19;10.48;;;7.82;;
71973;SDS011;59840;52.122;5.404;2023-06-22T11:57:55;8.90;;;8.00;;
71973;SDS011;59840;52.122;5.404;2023-06-22T12:00:25;8.68;;;7.80;;
71973;SDS011;59840;52.122;5.404;2023-06-22T12:02:56;8.45;;;7.63;;
71973;SDS011;59840;52.122;5.404;2023-06-22T12:05:26;10.07;;;9.07;;
71973;SDS011;59840;52.122;5.404;2023-06-22T12:07:53;10.77;;;8.10;;
71973;SDS011;59840;52.122;5.404;2023-06-22T12:10:20;9.83;;;8.83;;
71973;SDS011;59840;52.122;5.404;2023-06-22T12:12:51;10.38;;;8.45;;
71973;SDS011;59840;52.122;5.404;2023-06-22T12:15:18;9.55;;;8.10;;
71973;SDS011;59840;52.122;5.404;2023-06-22T12:17:45;9.98;;;8.57;;
71973;SDS011;59840;52.122;5.404;2023-06-22T12:20:14;9.82;;;8.82;;
71973;SDS011;59840;52.122;5.404;2023-06-22T12:22:41;12.27;;;8.73;;
71973;SDS011;59840;52.122;5.404;2023-06-22T12:25:08;9.88;;;8.77;;
71973;SDS011;59840;52.122;5.404;2023-06-22T12:27:35;12.82;;;8.30;;
71973;SDS011;59840;52.122;5.404;2023-06-22T12:30:02;9.35;;;8.38;;
71973;SDS011;59840;52.122;5.404;2023-06-22T12:32:29;9.70;;;8.35;;
71973;SDS011;59840;52.122;5.404;2023-06-22T12:34:56;12.27;;;8.43;;
71973;SDS011;59840;52.122;5.404;2023-06-22T12:37:23;10.15;;;8.90;;
71973;SDS011;59840;52.122;5.404;2023-06-22T12:39:50;11.68;;;9.00;;
71973;SDS011;59840;52.122;5.404;2023-06-22T12:42:16;12.27;;;9.80;;
71973;SDS011;59840;52.122;5.404;2023-06-22T12:44:43;10.38;;;9.30;;
71973;SDS011;59840;52.122;5.404;2023-06-22T12:47:10;9.00;;;8.13;;
71973;SDS011;59840;52.122;5.404;2023-06-22T12:49:37;8.60;;;7.80;;
71973;SDS011;59840;52.122;5.404;2023-06-22T12:52:10;11.45;;;8.63;;
71973;SDS011;59840;52.122;5.404;2023-06-22T12:54:37;9.60;;;7.95;;
71973;SDS011;59840;52.122;5.404;2023-06-22T12:57:19;8.13;;;7.32;;
71973;SDS011;59840;52.122;5.404;2023-06-22T12:59:46;8.70;;;7.80;;
71973;SDS011;59840;52.122;5.404;2023-06-22T13:02:12;10.93;;;7.65;;
71973;SDS011;59840;52.122;5.404;2023-06-22T13:04:39;9.10;;;7.32;;
71973;SDS011;59840;52.122;5.404;2023-06-22T13:07:06;8.00;;;6.55;;
71973;SDS011;59840;52.122;5.404;2023-06-22T13:09:47;8.38;;;6.75;;
71973;SDS011;59840;52.122;5.404;2023-06-22T13:12:19;7.00;;;6.20;;
71973;SDS011;59840;52.122;5.404;2023-06-22T13:14:46;6.88;;;6.00;;
71973;SDS011;59840;52.122;5.404;2023-06-22T13:17:14;8.10;;;6.93;;
71973;SDS011;59840;52.122;5.404;2023-06-22T13:19:41;8.05;;;7.22;;
71973;SDS011;59840;52.122;5.404;2023-06-22T13:24:57;8.00;;;7.20;;
71973;SDS011;59840;52.122;5.404;2023-06-22T13:27:25;7.63;;;6.93;;
71973;SDS011;59840;52.122;5.404;2023-06-22T13:29:52;8.50;;;7.72;;
71973;SDS011;59840;52.122;5.404;2023-06-22T13:32:18;9.07;;;7.40;;
71973;SDS011;59840;52.122;5.404;2023-06-22T13:34:45;8.90;;;8.00;;
71973;SDS011;59840;52.122;5.404;2023-06-22T13:37:12;9.20;;;7.73;;
71973;SDS011;59840;52.122;5.404;2023-06-22T13:39:38;10.25;;;7.80;;
71973;SDS011;59840;52.122;5.404;2023-06-22T13:42:05;9.43;;;8.30;;
71973;SDS011;59840;52.122;5.404;2023-06-22T13:44:32;9.75;;;7.80;;
71973;SDS011;59840;52.122;5.404;2023-06-22T13:46:59;8.98;;;8.13;;
71973;SDS011;59840;52.122;5.404;2023-06-22T13:49:26;9.90;;;8.70;;
71973;SDS011;59840;52.122;5.404;2023-06-22T13:51:52;9.48;;;8.52;;
71973;SDS011;59840;52.122;5.404;2023-06-22T13:54:19;10.63;;;9.07;;
71973;SDS011;59840;52.122;5.404;2023-06-22T13:56:48;10.18;;;9.18;;
71973;SDS011;59840;52.122;5.404;2023-06-22T13:59:15;9.98;;;8.98;;
71973;SDS011;59840;52.122;5.404;2023-06-22T14:01:42;9.83;;;8.93;;
71973;SDS011;59840;52.122;5.404;2023-06-22T14:04:09;12.57;;;9.70;;
71973;SDS011;59840;52.122;5.404;2023-06-22T14:06:37;10.77;;;9.68;;
71973;SDS011;59840;52.122;5.404;2023-06-22T14:09:04;11.02;;;9.07;;
71973;SDS011;59840;52.122;5.404;2023-06-22T14:11:31;9.80;;;8.68;;
71973;SDS011;59840;52.122;5.404;2023-06-22T14:13:58;9.77;;;8.87;;
71973;SDS011;59840;52.122;5.404;2023-06-22T14:16:25;9.50;;;8.50;;
71973;SDS011;59840;52.122;5.404;2023-06-22T14:18:51;10.30;;;8.88;;
71973;SDS011;59840;52.122;5.404;2023-06-22T14:21:21;11.35;;;9.38;;
71973;SDS011;59840;52.122;5.404;2023-06-22T14:23:47;10.25;;;9.15;;
71973;SDS011;59840;52.122;5.404;2023-06-22T14:26:16;10.83;;;9.73;;
71973;SDS011;59840;52.122;5.404;2023-06-22T14:28:47;13.13;;;10.18;;
71973;SDS011;59840;52.122;5.404;2023-06-22T14:31:16;11.15;;;9.95;;
71973;SDS011;59840;52.122;5.404;2023-06-22T14:33:45;9.63;;;8.52;;
71973;SDS011;59840;52.122;5.404;2023-06-22T14:36:13;10.73;;;9.65;;
71973;SDS011;59840;52.122;5.404;2023-06-22T14:38:45;11.87;;;9.70;;
71973;SDS011;59840;52.122;5.404;2023-06-22T14:41:14;10.55;;;9.57;;
71973;SDS011;59840;52.122;5.404;2023-06-22T14:43:47;12.48;;;9.93;;
71973;SDS011;59840;52.122;5.404;2023-06-22T14:46:17;9.98;;;8.98;;
71973;SDS011;59840;52.122;5.404;2023-06-22T14:48:45;12.43;;;9.48;;
71973;SDS011;59840;52.122;5.404;2023-06-22T14:51:12;11.27;;;10.17;;
71973;SDS011;59840;52.122;5.404;2023-06-22T14:53:43;11.68;;;9.20;;
71973;SDS011;59840;52.122;5.404;2023-06-22T14:56:11;10.88;;;9.77;;